sensor_id;sensor_type;location;lat;lon;timestamp;pressure;altitude;pressure_sealevel;temperature;humidity
56894;BME280;43392;50.078;13.704;2023-01-25T00:01:28;98717.06;;;1.09;95.53
56894;BME280;43392;50.078;13.704;2023-01-25T00:03:54;98715.25;;;1.10;95.33
56894;BME280;43392;50.078;13.704;2023-01-25T00:06:21;98707.50;;;1.08;95.49
56894;BME280;43392;50.078;13.704;2023-01-25T00:08:48;98707.50;;;1.08;95.46
56894;BME280;43392;50.078;13.704;2023-01-25T00:11:16;98715.59;;;1.07;95.63
56894;BME280;43392;50.078;13.704;2023-01-25T00:13:44;98708.47;;;1.07;95.76
56894;BME280;43392;50.078;13.704;2023-01-25T00:16:11;98717.56;;;1.05;95.50
56894;BME280;43392;50.078;13.704;2023-01-25T00:18:38;98715.75;;;1.05;95.54
56894;BME280;43392;50.078;13.704;2023-01-25T00:21:11;98703.19;;;1.07;95.73
56894;BME280;43392;50.078;13.704;2023-01-25T00:23:38;98703.38;;;1.06;95.69
56894;BME280;43392;50.078;13.704;2023-01-25T00:26:04;98700.75;;;1.06;95.69
56894;BME280;43392;50.078;13.704;2023-01-25T00:28:32;98701.56;;;1.06;95.82
56894;BME280;43392;50.078;13.704;2023-01-25T00:30:59;98714.94;;;1.05;95.72
56894;BME280;43392;50.078;13.704;2023-01-25T00:33:37;98708.81;;;1.04;95.51
56894;BME280;43392;50.078;13.704;2023-01-25T00:36:31;98708.34;;;1.01;95.79
56894;BME280;43392;50.078;13.704;2023-01-25T00:38:59;98704.69;;;1.02;95.63
56894;BME280;43392;50.078;13.704;2023-01-25T00:41:25;98699.41;;;1.02;95.63
56894;BME280;43392;50.078;13.704;2023-01-25T00:43:53;98701.72;;;1.05;95.55
56894;BME280;43392;50.078;13.704;2023-01-25T00:46:20;98709.31;;;1.08;95.57
56894;BME280;43392;50.078;13.704;2023-01-25T00:48:47;98695.63;;;1.04;95.46
56894;BME280;43392;50.078;13.704;2023-01-25T00:51:14;98700.41;;;1.09;95.29
56894;BME280;43392;50.078;13.704;2023-01-25T00:53:40;98690.63;;;1.09;95.60
56894;BME280;43392;50.078;13.704;2023-01-25T00:56:07;98690.00;;;1.07;95.45
56894;BME280;43392;50.078;13.704;2023-01-25T00:58:34;98687.19;;;1.09;95.38
56894;BME280;43392;50.078;13.704;2023-01-25T01:01:02;98686.03;;;1.11;95.37
56894;BME280;43392;50.078;13.704;2023-01-25T01:03:28;98687.84;;;1.11;95.27
56894;BME280;43392;50.078;13.704;2023-01-25T01:06:00;98698.22;;;1.12;95.01
56894;BME280;43392;50.078;13.704;2023-01-25T01:08:32;98692.13;;;1.12;95.26
56894;BME280;43392;50.078;13.704;2023-01-25T01:11:03;98702.03;;;1.10;95.42
56894;BME280;43392;50.078;13.704;2023-01-25T01:13:30;98688.81;;;1.10;95.34
56894;BME280;43392;50.078;13.704;2023-01-25T01:15:59;98698.41;;;1.11;95.27
56894;BME280;43392;50.078;13.704;2023-01-25T01:18:28;98698.09;;;1.06;95.49
56894;BME280;43392;50.078;13.704;2023-01-25T01:20:58;98696.28;;;1.06;95.55
56894;BME280;43392;50.078;13.704;2023-01-25T01:23:26;98698.94;;;1.06;95.47
56894;BME280;43392;50.078;13.704;2023-01-25T01:25:53;98706.84;;;1.06;95.46
56894;BME280;43392;50.078;13.704;2023-01-25T01:28:20;98702.22;;;1.08;95.56
56894;BME280;43392;50.078;13.704;2023-01-25T01:30:47;98705.69;;;1.09;95.58
56894;BME280;43392;50.078;13.704;2023-01-25T01:33:13;98701.19;;;1.09;95.37
56894;BME280;43392;50.078;13.704;2023-01-25T01:35:41;98695.91;;;1.09;95.29
56894;BME280;43392;50.078;13.704;2023-01-25T01:38:10;98698.44;;;1.03;95.15
56894;BME280;43392;50.078;13.704;2023-01-25T01:40:37;98690.81;;;1.08;94.99
56894;BME280;43392;50.078;13.704;2023-01-25T01:43:15;98702.88;;;1.10;94.90
56894;BME280;43392;50.078;13.704;2023-01-25T01:46:01;98693.94;;;1.11;94.50
56894;BME280;43392;50.078;13.704;2023-01-25T01:48:32;98700.69;;;1.14;94.81
56894;BME280;43392;50.078;13.704;2023-01-25T01:51:04;98689.97;;;1.15;94.74
56894;BME280;43392;50.078;13.704;2023-01-25T01:53:31;98688.94;;;1.16;94.69
56894;BME280;43392;50.078;13.704;2023-01-25T01:56:01;98693.25;;;1.17;94.38
56894;BME280;43392;50.078;13.704;2023-01-25T01:58:32;98694.06;;;1.18;94.71
56894;BME280;43392;50.078;13.704;2023-01-25T02:00:59;98682.88;;;1.16;94.66
56894;BME280;43392;50.078;13.704;2023-01-25T02:03:26;98689.13;;;1.15;94.59
56894;BME280;43392;50.078;13.704;2023-01-25T02:05:56;98689.13;;;1.15;94.72
56894;BME280;43392;50.078;13.704;2023-01-25T02:08:29;98689.31;;;1.13;94.43
56894;BME280;43392;50.078;13.704;2023-01-25T02:10:58;98687.66;;;1.12;94.89
56894;BME280;43392;50.078;13.704;2023-01-25T02:13:25;98686.69;;;1.13;94.96
56894;BME280;43392;50.078;13.704;2023-01-25T02:15:53;98685.66;;;1.14;95.05
56894;BME280;43392;50.078;13.704;2023-01-25T02:18:21;98680.75;;;1.11;95.02
56894;BME280;43392;50.078;13.704;2023-01-25T02:20:50;98683.53;;;1.10;94.92
56894;BME280;43392;50.078;13.704;2023-01-25T02:23:22;98687.00;;;1.10;94.97
56894;BME280;43392;50.078;13.704;2023-01-25T02:25:52;98679.91;;;1.11;95.00
56894;BME280;43392;50.078;13.704;2023-01-25T02:28:22;98684.03;;;1.13;95.10
56894;BME280;43392;50.078;13.704;2023-01-25T02:30:50;98673.81;;;1.10;94.89
56894;BME280;43392;50.078;13.704;2023-01-25T02:33:16;98683.72;;;1.08;94.80
56894;BME280;43392;50.078;13.704;2023-01-25T02:35:45;98675.94;;;1.07;95.05
56894;BME280;43392;50.078;13.704;2023-01-25T02:38:16;98674.84;;;1.01;95.03
56894;BME280;43392;50.078;13.704;2023-01-25T02:40:45;98667.09;;;1.00;95.17
56894;BME280;43392;50.078;13.704;2023-01-25T02:43:15;98664.44;;;1.00;95.38
56894;BME280;43392;50.078;13.704;2023-01-25T02:45:45;98664.09;;;1.03;95.32
56894;BME280;43392;50.078;13.704;2023-01-25T02:48:13;98656.47;;;1.08;95.62
56894;BME280;43392;50.078;13.704;2023-01-25T02:50:39;98653.50;;;1.11;95.81
56894;BME280;43392;50.078;13.704;2023-01-25T02:53:06;98651.31;;;1.14;95.71
56894;BME280;43392;50.078;13.704;2023-01-25T02:55:32;98647.19;;;1.12;95.29
56894;BME280;43392;50.078;13.704;2023-01-25T02:57:59;98651.00;;;1.09;95.09
56894;BME280;43392;50.078;13.704;2023-01-25T03:00:27;98641.47;;;1.08;95.41
56894;BME280;43392;50.078;13.704;2023-01-25T03:02:54;98642.28;;;1.09;95.38
56894;BME280;43392;50.078;13.704;2023-01-25T03:05:20;98639.81;;;1.07;95.41
56894;BME280;43392;50.078;13.704;2023-01-25T03:07:47;98635.03;;;1.03;95.29
56894;BME280;43392;50.078;13.704;2023-01-25T03:10:14;98629.94;;;1.01;95.29
56894;BME280;43392;50.078;13.704;2023-01-25T03:12:40;98640.50;;;1.01;95.46
56894;BME280;43392;50.078;13.704;2023-01-25T03:15:08;98635.69;;;1.05;95.68
56894;BME280;43392;50.078;13.704;2023-01-25T03:17:36;98628.91;;;1.10;95.56
56894;BME280;43392;50.078;13.704;2023-01-25T03:20:02;98629.09;;;1.09;95.41
56894;BME280;43392;50.078;13.704;2023-01-25T03:22:30;98626.25;;;1.10;95.62
56894;BME280;43392;50.078;13.704;2023-01-25T03:24:57;98624.44;;;1.11;95.36
56894;BME280;43392;50.078;13.704;2023-01-25T03:27:23;98618.31;;;1.10;95.66
56894;BME280;43392;50.078;13.704;2023-01-25T03:29:50;98618.56;;;1.01;95.43
56894;BME280;43392;50.078;13.704;2023-01-25T03:32:16;98622.81;;;1.02;95.84
56894;BME280;43392;50.078;13.704;2023-01-25T03:34:44;98603.16;;;1.04;95.71
56894;BME280;43392;50.078;13.704;2023-01-25T03:37:11;98597.53;;;1.07;95.47
56894;BME280;43392;50.078;13.704;2023-01-25T03:39:38;98599.53;;;1.05;95.38
56894;BME280;43392;50.078;13.704;2023-01-25T03:42:04;98598.56;;;1.06;95.42
56894;BME280;43392;50.078;13.704;2023-01-25T03:44:31;98588.63;;;1.08;95.67
56894;BME280;43392;50.078;13.704;2023-01-25T03:46:57;98579.53;;;1.11;95.65
56894;BME280;43392;50.078;13.704;2023-01-25T03:49:24;98588.94;;;1.13;95.59
56894;BME280;43392;50.078;13.704;2023-01-25T03:51:53;98591.72;;;1.12;95.71
56894;BME280;43392;50.078;13.704;2023-01-25T03:54:22;98586.34;;;1.05;95.17
56894;BME280;43392;50.078;13.704;2023-01-25T03:56:48;98577.16;;;0.93;95.34
56894;BME280;43392;50.078;13.704;2023-01-25T03:59:15;98575.81;;;0.97;95.94
56894;BME280;43392;50.078;13.704;2023-01-25T04:01:42;98573.47;;;1.02;95.78
56894;BME280;43392;50.078;13.704;2023-01-25T04:04:08;98577.50;;;0.90;95.89
56894;BME280;43392;50.078;13.704;2023-01-25T04:06:35;98574.53;;;0.93;96.05
56894;BME280;43392;50.078;13.704;2023-01-25T04:09:04;98572.53;;;0.95;95.82
56894;BME280;43392;50.078;13.704;2023-01-25T04:11:31;98569.19;;;1.01;95.90
56894;BME280;43392;50.078;13.704;2023-01-25T04:13:57;98572.81;;;1.00;95.68
56894;BME280;43392;50.078;13.704;2023-01-25T04:16:24;98573.47;;;1.02;95.54
56894;BME280;43392;50.078;13.704;2023-01-25T04:18:51;98572.63;;;1.02;95.48
56894;BME280;43392;50.078;13.704;2023-01-25T04:21:18;98569.06;;;0.95;95.48
56894;BME280;43392;50.078;13.704;2023-01-25T04:23:44;98557.56;;;0.88;95.56
56894;BME280;43392;50.078;13.704;2023-01-25T04:26:12;98560.19;;;0.88;95.60
56894;BME280;43392;50.078;13.704;2023-01-25T04:28:39;98551.47;;;0.87;95.77
56894;BME280;43392;50.078;13.704;2023-01-25T04:31:06;98551.94;;;0.91;95.92
56894;BME280;43392;50.078;13.704;2023-01-25T04:33:33;98550.75;;;0.93;95.68
56894;BME280;43392;50.078;13.704;2023-01-25T04:35:59;98548.13;;;0.93;95.74
56894;BME280;43392;50.078;13.704;2023-01-25T04:38:26;98552.56;;;0.93;95.73
56894;BME280;43392;50.078;13.704;2023-01-25T04:40:52;98552.56;;;0.93;95.59
56894;BME280;43392;50.078;13.704;2023-01-25T04:43:20;98552.91;;;0.90;95.51
56894;BME280;43392;50.078;13.704;2023-01-25T04:45:47;98546.66;;;0.91;95.40
56894;BME280;43392;50.078;13.704;2023-01-25T04:48:14;98538.91;;;0.89;95.37
56894;BME280;43392;50.078;13.704;2023-01-25T04:50:41;98539.38;;;0.93;95.59
56894;BME280;43392;50.078;13.704;2023-01-25T04:53:09;98549.59;;;0.96;95.69
56894;BME280;43392;50.078;13.704;2023-01-25T04:55:36;98552.72;;;0.99;95.59
56894;BME280;43392;50.078;13.704;2023-01-25T04:58:03;98542.16;;;0.99;95.16
56894;BME280;43392;50.078;13.704;2023-01-25T05:00:31;98548.41;;;0.98;95.33
56894;BME280;43392;50.078;13.704;2023-01-25T05:02:58;98552.03;;;0.97;95.24
56894;BME280;43392;50.078;13.704;2023-01-25T05:05:24;98555.34;;;0.99;94.92
56894;BME280;43392;50.078;13.704;2023-01-25T05:07:51;98544.78;;;0.99;95.35
56894;BME280;43392;50.078;13.704;2023-01-25T05:10:17;98541.13;;;1.00;95.18
56894;BME280;43392;50.078;13.704;2023-01-25T05:12:44;98541.47;;;0.97;95.26
56894;BME280;43392;50.078;13.704;2023-01-25T05:15:11;98550.41;;;0.96;95.46
56894;BME280;43392;50.078;13.704;2023-01-25T05:17:38;98532.75;;;0.97;95.37
56894;BME280;43392;50.078;13.704;2023-01-25T05:20:06;98539.50;;;0.99;95.73
56894;BME280;43392;50.078;13.704;2023-01-25T05:22:32;98525.28;;;1.00;95.38
56894;BME280;43392;50.078;13.704;2023-01-25T05:24:59;98538.50;;;1.00;95.29
56894;BME280;43392;50.078;13.704;2023-01-25T05:27:27;98535.22;;;0.98;95.63
56894;BME280;43392;50.078;13.704;2023-01-25T05:29:52;98539.50;;;0.99;95.55
56894;BME280;43392;50.078;13.704;2023-01-25T05:32:21;98539.31;;;1.01;95.45
56894;BME280;43392;50.078;13.704;2023-01-25T05:34:49;98538.31;;;1.02;95.23
56894;BME280;43392;50.078;13.704;2023-01-25T05:37:18;98537.66;;;1.00;95.22
56894;BME280;43392;50.078;13.704;2023-01-25T05:39:44;98547.06;;;1.02;95.71
56894;BME280;43392;50.078;13.704;2023-01-25T05:42:13;98545.06;;;1.04;95.27
56894;BME280;43392;50.078;13.704;2023-01-25T05:44:40;98545.13;;;0.96;95.60
56894;BME280;43392;50.078;13.704;2023-01-25T05:47:09;98549.41;;;0.97;95.36
56894;BME280;43392;50.078;13.704;2023-01-25T05:49:37;98546.41;;;1.00;95.54
56894;BME280;43392;50.078;13.704;2023-01-25T05:52:05;98546.22;;;1.02;95.39
56894;BME280;43392;50.078;13.704;2023-01-25T05:54:32;98543.78;;;1.00;95.61
56894;BME280;43392;50.078;13.704;2023-01-25T05:56:58;98545.44;;;1.01;95.63
56894;BME280;43392;50.078;13.704;2023-01-25T05:59:25;98535.50;;;1.03;95.70
56894;BME280;43392;50.078;13.704;2023-01-25T06:01:52;98534.47;;;1.04;95.91
56894;BME280;43392;50.078;13.704;2023-01-25T06:04:18;98529.69;;;1.08;95.72
56894;BME280;43392;50.078;13.704;2023-01-25T06:06:45;98537.59;;;1.08;95.39
56894;BME280;43392;50.078;13.704;2023-01-25T06:09:13;98535.78;;;1.08;95.63
56894;BME280;43392;50.078;13.704;2023-01-25T06:11:42;98529.88;;;1.06;95.71
56894;BME280;43392;50.078;13.704;2023-01-25T06:14:09;98529.50;;;1.09;95.52
56894;BME280;43392;50.078;13.704;2023-01-25T06:16:35;98525.09;;;1.02;95.36
56894;BME280;43392;50.078;13.704;2023-01-25T06:19:03;98543.72;;;1.08;95.46
56894;BME280;43392;50.078;13.704;2023-01-25T06:21:30;98540.72;;;1.11;95.63
56894;BME280;43392;50.078;13.704;2023-01-25T06:23:57;98535.06;;;1.14;95.54
56894;BME280;43392;50.078;13.704;2023-01-25T06:26:25;98530.63;;;1.15;95.52
56894;BME280;43392;50.078;13.704;2023-01-25T06:28:51;98531.44;;;1.15;95.27
56894;BME280;43392;50.078;13.704;2023-01-25T06:31:18;98532.28;;;1.16;95.37
56894;BME280;43392;50.078;13.704;2023-01-25T06:33:47;98529.78;;;1.14;95.42
56894;BME280;43392;50.078;13.704;2023-01-25T06:36:15;98524.50;;;1.14;95.50
56894;BME280;43392;50.078;13.704;2023-01-25T06:38:42;98532.44;;;1.14;95.75
56894;BME280;43392;50.078;13.704;2023-01-25T06:41:10;98532.28;;;1.16;95.51
56894;BME280;43392;50.078;13.704;2023-01-25T06:43:38;98524.50;;;1.14;95.33
56894;BME280;43392;50.078;13.704;2023-01-25T06:46:06;98531.44;;;1.15;95.44
56894;BME280;43392;50.078;13.704;2023-01-25T06:48:33;98531.44;;;1.15;95.60
56894;BME280;43392;50.078;13.704;2023-01-25T06:51:02;98529.63;;;1.16;95.39
56894;BME280;43392;50.078;13.704;2023-01-25T06:53:30;98522.69;;;1.15;95.03
56894;BME280;43392;50.078;13.704;2023-01-25T06:55:58;98520.41;;;1.12;95.31
56894;BME280;43392;50.078;13.704;2023-01-25T06:58:24;98517.13;;;1.10;95.14
56894;BME280;43392;50.078;13.704;2023-01-25T07:00:53;98516.13;;;1.11;95.53
56894;BME280;43392;50.078;13.704;2023-01-25T07:03:19;98522.88;;;1.13;95.59
56894;BME280;43392;50.078;13.704;2023-01-25T07:05:46;98519.41;;;1.13;95.31
56894;BME280;43392;50.078;13.704;2023-01-25T07:08:13;98525.69;;;1.12;95.30
56894;BME280;43392;50.078;13.704;2023-01-25T07:10:40;98524.50;;;1.14;95.33
56894;BME280;43392;50.078;13.704;2023-01-25T07:13:06;98515.94;;;1.12;94.98
56894;BME280;43392;50.078;13.704;2023-01-25T07:15:33;98515.31;;;1.10;95.21
56894;BME280;43392;50.078;13.704;2023-01-25T07:18:01;98525.22;;;1.08;95.09
56894;BME280;43392;50.078;13.704;2023-01-25T07:20:28;98528.22;;;1.05;95.40
56894;BME280;43392;50.078;13.704;2023-01-25T07:22:54;98521.47;;;1.03;95.43
56894;BME280;43392;50.078;13.704;2023-01-25T07:25:21;98516.81;;;1.05;95.46
56894;BME280;43392;50.078;13.704;2023-01-25T07:27:47;98517.47;;;1.07;95.61
56894;BME280;43392;50.078;13.704;2023-01-25T07:30:15;98519.94;;;1.08;95.17
56894;BME280;43392;50.078;13.704;2023-01-25T07:32:42;98518.13;;;1.09;95.09
56894;BME280;43392;50.078;13.704;2023-01-25T07:35:10;98518.28;;;1.07;95.16
56894;BME280;43392;50.078;13.704;2023-01-25T07:37:36;98515.84;;;1.06;95.43
56894;BME280;43392;50.078;13.704;2023-01-25T07:40:04;98513.84;;;1.08;95.67
56894;BME280;43392;50.078;13.704;2023-01-25T07:42:30;98518.59;;;1.12;95.29
56894;BME280;43392;50.078;13.704;2023-01-25T07:44:57;98515.59;;;1.15;95.20
56894;BME280;43392;50.078;13.704;2023-01-25T07:47:23;98514.22;;;1.19;95.09
56894;BME280;43392;50.078;13.704;2023-01-25T07:49:50;98508.66;;;1.14;94.97
56894;BME280;43392;50.078;13.704;2023-01-25T07:52:18;98509.97;;;1.18;95.10
56894;BME280;43392;50.078;13.704;2023-01-25T07:54:44;98513.25;;;1.20;95.07
56894;BME280;43392;50.078;13.704;2023-01-25T07:57:14;98516.72;;;1.21;95.12
56894;BME280;43392;50.078;13.704;2023-01-25T07:59:40;98514.56;;;1.16;94.74
56894;BME280;43392;50.078;13.704;2023-01-25T08:02:09;98508.13;;;1.19;94.92
56894;BME280;43392;50.078;13.704;2023-01-25T08:04:37;98509.88;;;1.93;100.00
56894;BME280;43392;50.078;13.704;2023-01-25T08:07:03;98494.06;;;4.31;95.07
56894;BME280;43392;50.078;13.704;2023-01-25T08:09:31;98493.91;;;4.04;88.97
56894;BME280;43392;50.078;13.704;2023-01-25T08:11:58;98496.09;;;3.32;89.45
56894;BME280;43392;50.078;13.704;2023-01-25T08:14:25;98494.91;;;2.72;90.68
56894;BME280;43392;50.078;13.704;2023-01-25T08:16:51;98494.50;;;2.32;92.05
56894;BME280;43392;50.078;13.704;2023-01-25T08:19:18;98491.69;;;2.05;92.75
56894;BME280;43392;50.078;13.704;2023-01-25T08:21:46;98490.06;;;1.89;93.25
56894;BME280;43392;50.078;13.704;2023-01-25T08:24:12;98488.88;;;1.77;93.22
56894;BME280;43392;50.078;13.704;2023-01-25T08:26:40;98484.06;;;1.66;93.62
56894;BME280;43392;50.078;13.704;2023-01-25T08:29:09;98480.97;;;1.62;93.86
56894;BME280;43392;50.078;13.704;2023-01-25T08:31:39;98482.78;;;1.62;94.33
56894;BME280;43392;50.078;13.704;2023-01-25T08:34:06;98481.13;;;1.61;93.89
56894;BME280;43392;50.078;13.704;2023-01-25T08:36:33;98472.91;;;1.56;93.92
56894;BME280;43392;50.078;13.704;2023-01-25T08:39:01;98482.94;;;1.46;93.61
56894;BME280;43392;50.078;13.704;2023-01-25T08:41:29;98481.94;;;1.47;93.87
56894;BME280;43392;50.078;13.704;2023-01-25T08:43:57;98474.72;;;1.41;93.82
56894;BME280;43392;50.078;13.704;2023-01-25T08:46:26;98467.75;;;1.48;94.05
56894;BME280;43392;50.078;13.704;2023-01-25T08:48:53;98473.94;;;1.55;94.33
56894;BME280;43392;50.078;13.704;2023-01-25T08:51:20;98471.94;;;1.57;93.85
56894;BME280;43392;50.078;13.704;2023-01-25T08:53:47;98466.28;;;1.60;93.75
56894;BME280;43392;50.078;13.704;2023-01-25T08:56:14;98468.38;;;1.64;93.79
56894;BME280;43392;50.078;13.704;2023-01-25T08:58:44;98466.81;;;1.70;93.49
56894;BME280;43392;50.078;13.704;2023-01-25T09:01:15;98465.53;;;1.66;93.11
56894;BME280;43392;50.078;13.704;2023-01-25T09:03:43;98465.19;;;1.69;93.22
56894;BME280;43392;50.078;13.704;2023-01-25T09:06:11;98459.91;;;1.69;93.13
56894;BME280;43392;50.078;13.704;2023-01-25T09:08:38;98443.56;;;1.65;92.93
56894;BME280;43392;50.078;13.704;2023-01-25T09:11:06;98441.75;;;1.66;92.95
56894;BME280;43392;50.078;13.704;2023-01-25T09:13:33;98439.47;;;1.63;92.95
56894;BME280;43392;50.078;13.704;2023-01-25T09:16:01;98440.75;;;1.67;93.28
56894;BME280;43392;50.078;13.704;2023-01-25T09:18:29;98423.16;;;1.74;93.39
56894;BME280;43392;50.078;13.704;2023-01-25T09:20:56;98427.25;;;1.76;93.16
56894;BME280;43392;50.078;13.704;2023-01-25T09:23:23;98436.38;;;1.74;92.82
56894;BME280;43392;50.078;13.704;2023-01-25T09:25:55;98442.03;;;1.71;92.73
56894;BME280;43392;50.078;13.704;2023-01-25T09:28:22;98441.38;;;1.69;92.74
56894;BME280;43392;50.078;13.704;2023-01-25T09:30:53;98435.81;;;1.64;92.75
56894;BME280;43392;50.078;13.704;2023-01-25T09:33:19;98436.25;;;1.53;92.74
56894;BME280;43392;50.078;13.704;2023-01-25T09:35:48;98425.81;;;1.59;93.07
56894;BME280;43392;50.078;13.704;2023-01-25T09:38:15;98428.25;;;1.61;93.12
56894;BME280;43392;50.078;13.704;2023-01-25T09:40:46;98427.69;;;1.65;93.16
56894;BME280;43392;50.078;13.704;2023-01-25T09:43:20;98426.78;;;1.73;93.07
56894;BME280;43392;50.078;13.704;2023-01-25T09:45:53;98433.19;;;1.78;92.73
56894;BME280;43392;50.078;13.704;2023-01-25T09:48:26;98426.06;;;1.79;92.51
56894;BME280;43392;50.078;13.704;2023-01-25T09:51:14;98434.28;;;1.84;92.40
56894;BME280;43392;50.078;13.704;2023-01-25T09:53:48;98424.75;;;1.89;92.32
56894;BME280;43392;50.078;13.704;2023-01-25T09:56:19;98421.94;;;1.91;91.87
56894;BME280;43392;50.078;13.704;2023-01-25T09:58:49;98428.44;;;1.88;91.85
56894;BME280;43392;50.078;13.704;2023-01-25T10:01:21;98427.59;;;1.88;91.95
56894;BME280;43392;50.078;13.704;2023-01-25T10:03:53;98427.25;;;1.91;92.00
56894;BME280;43392;50.078;13.704;2023-01-25T10:06:27;98419.75;;;1.94;91.84
56894;BME280;43392;50.078;13.704;2023-01-25T10:09:00;98405.06;;;1.92;91.66
56894;BME280;43392;50.078;13.704;2023-01-25T10:11:32;98408.06;;;1.89;91.37
56894;BME280;43392;50.078;13.704;2023-01-25T10:13:59;98406.88;;;1.91;91.64
56894;BME280;43392;50.078;13.704;2023-01-25T10:16:30;98410.34;;;1.92;91.66
56894;BME280;43392;50.078;13.704;2023-01-25T10:19:10;98397.31;;;1.90;91.59
56894;BME280;43392;50.078;13.704;2023-01-25T10:21:41;98390.38;;;1.89;91.67
56894;BME280;43392;50.078;13.704;2023-01-25T10:24:33;98385.56;;;1.93;90.45
56894;BME280;43392;50.078;13.704;2023-01-25T10:27:15;98388.09;;;2.01;90.53
56894;BME280;43392;50.078;13.704;2023-01-25T10:29:47;98390.44;;;2.11;90.44
56894;BME280;43392;50.078;13.704;2023-01-25T10:32:18;98396.16;;;2.14;90.47
56894;BME280;43392;50.078;13.704;2023-01-25T10:34:46;98383.94;;;2.13;89.76
56894;BME280;43392;50.078;13.704;2023-01-25T10:37:19;98380.75;;;2.18;90.06
56894;BME280;43392;50.078;13.704;2023-01-25T10:39:53;98381.16;;;2.21;89.72
56894;BME280;43392;50.078;13.704;2023-01-25T10:42:25;98380.81;;;2.24;89.77
56894;BME280;43392;50.078;13.704;2023-01-25T10:44:52;98368.19;;;2.26;89.37
56894;BME280;43392;50.078;13.704;2023-01-25T10:47:22;98368.66;;;2.30;89.20
56894;BME280;43392;50.078;13.704;2023-01-25T10:49:51;98358.84;;;2.30;89.31
56894;BME280;43392;50.078;13.704;2023-01-25T10:52:22;98356.22;;;2.30;89.22
56894;BME280;43392;50.078;13.704;2023-01-25T10:55:13;98355.59;;;2.28;89.20
56894;BME280;43392;50.078;13.704;2023-01-25T10:57:42;98357.41;;;2.28;89.12
56894;BME280;43392;50.078;13.704;2023-01-25T11:00:19;98354.97;;;2.26;88.94
56894;BME280;43392;50.078;13.704;2023-01-25T11:02:48;98356.16;;;2.24;89.10
56894;BME280;43392;50.078;13.704;2023-01-25T11:05:26;98355.78;;;2.27;88.94
56894;BME280;43392;50.078;13.704;2023-01-25T11:07:55;98349.09;;;2.31;89.08
56894;BME280;43392;50.078;13.704;2023-01-25T11:10:30;98341.78;;;2.33;88.72
56894;BME280;43392;50.078;13.704;2023-01-25T11:13:27;98345.25;;;2.33;88.23
56894;BME280;43392;50.078;13.704;2023-01-25T11:16:13;98334.66;;;2.33;88.54
56894;BME280;43392;50.078;13.704;2023-01-25T11:18:50;98331.44;;;2.38;88.80
56894;BME280;43392;50.078;13.704;2023-01-25T11:21:18;98335.53;;;2.40;88.86
56894;BME280;43392;50.078;13.704;2023-01-25T11:24:03;98331.28;;;2.39;88.42
56894;BME280;43392;50.078;13.704;2023-01-25T11:26:31;98328.81;;;2.38;88.34
56894;BME280;43392;50.078;13.704;2023-01-25T11:29:14;98321.06;;;2.36;88.12
56894;BME280;43392;50.078;13.704;2023-01-25T11:31:44;98310.69;;;2.35;88.37
56894;BME280;43392;50.078;13.704;2023-01-25T11:34:13;98314.94;;;2.36;88.44
56894;BME280;43392;50.078;13.704;2023-01-25T11:36:54;98308.03;;;2.35;88.45
56894;BME280;43392;50.078;13.704;2023-01-25T11:39:36;98306.38;;;2.34;88.43
56894;BME280;43392;50.078;13.704;2023-01-25T11:42:19;98298.25;;;2.35;88.31
56894;BME280;43392;50.078;13.704;2023-01-25T11:48:09;98299.06;;;2.36;87.96
56894;BME280;43392;50.078;13.704;2023-01-25T11:50:40;98290.50;;;2.34;87.83
56894;BME280;43392;50.078;13.704;2023-01-25T11:53:26;98283.97;;;2.30;87.03
56894;BME280;43392;50.078;13.704;2023-01-25T11:56:04;98279.03;;;2.27;87.50
56894;BME280;43392;50.078;13.704;2023-01-25T11:58:44;98276.41;;;2.27;87.53
56894;BME280;43392;50.078;13.704;2023-01-25T12:01:20;98272.09;;;2.26;87.78
56894;BME280;43392;50.078;13.704;2023-01-25T12:04:24;98264.16;;;2.26;87.48
56894;BME280;43392;50.078;13.704;2023-01-25T12:06:58;98262.34;;;2.26;87.68
56894;BME280;43392;50.078;13.704;2023-01-25T12:09:36;98249.47;;;2.23;87.62
56894;BME280;43392;50.078;13.704;2023-01-25T12:12:15;98236.25;;;2.23;87.56
56894;BME280;43392;50.078;13.704;2023-01-25T12:14:57;98246.03;;;2.23;87.59
56894;BME280;43392;50.078;13.704;2023-01-25T12:17:39;98243.56;;;2.21;87.65
56894;BME280;43392;50.078;13.704;2023-01-25T12:20:27;98235.59;;;3.11;88.12
56894;BME280;43392;50.078;13.704;2023-01-25T12:23:23;98224.44;;;3.22;85.61
56894;BME280;43392;50.078;13.704;2023-01-25T12:26:03;98218.38;;;2.94;86.20
56894;BME280;43392;50.078;13.704;2023-01-25T12:28:36;98216.22;;;2.69;86.02
56894;BME280;43392;50.078;13.704;2023-01-25T12:31:11;98208.38;;;2.55;86.66
56894;BME280;43392;50.078;13.704;2023-01-25T12:33:42;98206.66;;;2.41;87.05
56894;BME280;43392;50.078;13.704;2023-01-25T12:36:13;98195.41;;;2.32;87.16
56894;BME280;43392;50.078;13.704;2023-01-25T12:38:49;98187.47;;;2.32;87.57
56894;BME280;43392;50.078;13.704;2023-01-25T12:41:27;98184.00;;;2.32;87.49
56894;BME280;43392;50.078;13.704;2023-01-25T12:44:05;98170.78;;;2.32;87.33
56894;BME280;43392;50.078;13.704;2023-01-25T12:46:38;98175.25;;;2.31;87.58
56894;BME280;43392;50.078;13.704;2023-01-25T12:49:14;98169.97;;;2.31;87.68
56894;BME280;43392;50.078;13.704;2023-01-25T12:51:44;98160.19;;;2.32;87.49
56894;BME280;43392;50.078;13.704;2023-01-25T12:54:16;98157.09;;;2.28;87.45
56894;BME280;43392;50.078;13.704;2023-01-25T12:56:48;98157.50;;;2.25;87.43
56894;BME280;43392;50.078;13.704;2023-01-25T12:59:29;98158.69;;;2.57;88.07
56894;BME280;43392;50.078;13.704;2023-01-25T13:02:12;98148.94;;;2.57;87.29
56894;BME280;43392;50.078;13.704;2023-01-25T13:04:55;98150.72;;;2.50;87.02
56894;BME280;43392;50.078;13.704;2023-01-25T13:07:31;98145.59;;;2.42;87.13
56894;BME280;43392;50.078;13.704;2023-01-25T13:10:02;98150.66;;;2.37;87.13
56894;BME280;43392;50.078;13.704;2023-01-25T13:12:49;98141.03;;;2.30;86.77
56894;BME280;43392;50.078;13.704;2023-01-25T13:15:35;98131.44;;;2.22;87.00
56894;BME280;43392;50.078;13.704;2023-01-25T13:18:34;98131.81;;;2.19;87.33